createdAt,value
2022-12-31T00:00:46.886Z,22.23
2022-12-31T00:01:43.521Z,23.13
2022-12-31T00:02:40.221Z,19.73
2022-12-31T00:03:38.755Z,25.92
2022-12-31T00:04:35.427Z,32.17
2022-12-31T00:05:33.409Z,31.38
2022-12-31T00:06:29.993Z,28.77
2022-12-31T00:07:26.579Z,30.58
2022-12-31T00:08:23.140Z,28.10
2022-12-31T00:09:19.699Z,25.30
2022-12-31T00:10:16.324Z,20.15
2022-12-31T00:11:13.859Z,26.17
2022-12-31T00:12:10.576Z,23.80
2022-12-31T00:13:12.039Z,21.98
2022-12-31T00:14:08.683Z,23.50
2022-12-31T00:15:05.903Z,23.02
2022-12-31T00:16:12.445Z,22.45
2022-12-31T00:17:09.284Z,20.95
2022-12-31T00:18:06.190Z,20.77
2022-12-31T00:19:04.202Z,19.02
2022-12-31T00:20:00.855Z,20.40
2022-12-31T00:20:57.433Z,23.92
2022-12-31T00:21:54.050Z,35.20
2022-12-31T00:22:50.771Z,24.17
2022-12-31T00:23:47.859Z,22.48
2022-12-31T00:24:44.542Z,24.33
2022-12-31T00:25:41.136Z,22.33
2022-12-31T00:26:37.780Z,24.50
2022-12-31T00:27:34.408Z,25.52
2022-12-31T00:28:31.517Z,24.75
2022-12-31T00:29:28.185Z,21.52
2022-12-31T00:30:24.833Z,26.38
2022-12-31T00:31:24.496Z,20.75
2022-12-31T00:32:21.094Z,24.75
2022-12-31T00:33:17.755Z,23.40
2022-12-31T00:34:14.285Z,30.17
2022-12-31T00:35:10.827Z,22.67
2022-12-31T00:36:12.190Z,18.83
2022-12-31T00:37:08.845Z,15.52
2022-12-31T00:38:05.429Z,13.32
2022-12-31T00:39:04.142Z,14.43
2022-12-31T00:40:00.717Z,16.60
2022-12-31T00:40:57.279Z,16.77
2022-12-31T00:41:54.010Z,11.73
2022-12-31T00:42:50.597Z,11.32
2022-12-31T00:43:48.284Z,11.77
2022-12-31T00:44:44.917Z,7.70
2022-12-31T00:45:41.554Z,10.70
2022-12-31T00:47:34.041Z,12.82
2022-12-31T00:48:31.106Z,10.30
2022-12-31T00:49:27.651Z,9.93
2022-12-31T00:50:24.331Z,10.15
2022-12-31T00:51:23.503Z,9.43
2022-12-31T00:52:20.173Z,11.43
2022-12-31T00:53:16.766Z,8.30
2022-12-31T00:54:13.667Z,8.88
2022-12-31T00:55:10.278Z,10.20
2022-12-31T00:56:15.726Z,10.82
2022-12-31T00:57:12.471Z,15.82
2022-12-31T00:58:09.257Z,14.77
2022-12-31T00:59:06.177Z,18.75
2022-12-31T01:00:02.886Z,14.43
2022-12-31T01:01:07.596Z,12.35
2022-12-31T01:02:04.487Z,15.13
2022-12-31T01:03:01.703Z,16.15
2022-12-31T01:04:02.758Z,15.77
2022-12-31T01:04:59.375Z,18.10
2022-12-31T01:05:59.261Z,15.18
2022-12-31T01:06:55.839Z,10.43
2022-12-31T01:07:52.429Z,13.45
2022-12-31T01:08:50.412Z,9.68
2022-12-31T01:09:46.962Z,15.23
2022-12-31T01:11:07.560Z,13.07
2022-12-31T01:12:04.392Z,14.38
2022-12-31T01:13:00.959Z,9.50
2022-12-31T01:14:10.635Z,11.80
2022-12-31T01:15:07.526Z,11.52
2022-12-31T01:16:11.811Z,18.70
2022-12-31T01:17:08.512Z,11.73
2022-12-31T01:18:07.466Z,10.13
2022-12-31T01:19:07.033Z,14.38
2022-12-31T01:20:03.709Z,12.88
2022-12-31T01:21:03.348Z,10.68
2022-12-31T01:21:59.955Z,12.25
2022-12-31T01:22:56.533Z,12.32
2022-12-31T01:23:53.152Z,10.32
2022-12-31T01:24:49.885Z,9.38
2022-12-31T01:25:46.471Z,14.02
2022-12-31T01:26:43.935Z,12.43
2022-12-31T01:27:40.524Z,10.27
2022-12-31T01:28:37.437Z,8.77
2022-12-31T01:29:34.138Z,12.88
2022-12-31T01:30:30.861Z,15.80
2022-12-31T01:31:28.293Z,14.60
2022-12-31T01:32:24.919Z,16.25
2022-12-31T01:33:21.707Z,7.55
2022-12-31T01:34:18.366Z,11.00
2022-12-31T01:35:14.990Z,14.27
2022-12-31T01:36:16.854Z,10.80
2022-12-31T01:37:15.547Z,10.90
2022-12-31T01:38:12.149Z,14.27
2022-12-31T01:39:09.522Z,11.65
2022-12-31T01:40:06.687Z,10.70
2022-12-31T01:41:03.994Z,16.05
2022-12-31T01:42:00.602Z,14.38
2022-12-31T01:42:58.464Z,10.55
2022-12-31T01:43:58.798Z,10.55
2022-12-31T01:44:56.406Z,10.65
2022-12-31T01:45:54.694Z,16.13
2022-12-31T01:46:56.368Z,25.60
2022-12-31T01:47:58.101Z,19.67
2022-12-31T01:48:59.244Z,9.63
2022-12-31T01:50:03.197Z,12.68
2022-12-31T01:50:59.873Z,9.45
2022-12-31T01:52:17.934Z,11.65
2022-12-31T01:53:16.185Z,9.40
2022-12-31T01:54:16.166Z,11.73
2022-12-31T01:55:16.551Z,14.98
2022-12-31T01:56:13.350Z,11.40
2022-12-31T01:57:11.352Z,10.95
2022-12-31T01:58:28.627Z,14.75
2022-12-31T01:59:27.603Z,11.55
2022-12-31T02:00:24.494Z,10.63
2022-12-31T02:01:31.077Z,10.30
2022-12-31T02:02:28.169Z,10.57
2022-12-31T02:03:27.344Z,11.90
2022-12-31T02:04:26.602Z,14.85
2022-12-31T02:05:32.582Z,13.23
2022-12-31T02:06:35.118Z,8.43
2022-12-31T02:08:28.256Z,9.93
2022-12-31T02:09:24.944Z,18.65
2022-12-31T02:10:21.553Z,19.77
2022-12-31T02:11:22.793Z,20.88
2022-12-31T02:12:19.708Z,15.70
2022-12-31T02:13:16.533Z,13.98
2022-12-31T02:14:16.210Z,13.55
2022-12-31T02:15:12.948Z,29.20
2022-12-31T02:16:20.551Z,34.80
2022-12-31T02:17:37.875Z,18.33
2022-12-31T02:18:49.957Z,19.50
2022-12-31T02:20:05.502Z,21.67
2022-12-31T02:21:15.993Z,21.10
2022-12-31T02:22:57.448Z,22.52
2022-12-31T02:24:25.098Z,20.83
2022-12-31T02:25:36.728Z,19.23
2022-12-31T02:26:51.996Z,20.13
2022-12-31T02:27:56.875Z,17.63
2022-12-31T02:29:08.780Z,25.17
2022-12-31T02:30:05.422Z,19.58
2022-12-31T02:31:12.334Z,18.98
2022-12-31T02:32:24.846Z,23.48
2022-12-31T02:33:43.805Z,22.75
2022-12-31T02:34:47.395Z,22.10
2022-12-31T02:35:58.138Z,22.73
2022-12-31T02:36:57.784Z,18.90
2022-12-31T02:38:01.531Z,20.75
2022-12-31T02:38:59.488Z,18.55
2022-12-31T02:39:57.608Z,24.25
2022-12-31T02:40:54.982Z,19.35
2022-12-31T02:41:52.486Z,21.35
2022-12-31T02:42:55.118Z,21.98
2022-12-31T02:43:52.335Z,23.48
2022-12-31T02:44:49.070Z,25.42
2022-12-31T02:45:51.184Z,22.63
2022-12-31T02:47:23.237Z,25.77
2022-12-31T02:48:52.619Z,19.65
2022-12-31T02:50:13.687Z,23.63
2022-12-31T02:51:16.566Z,18.42
2022-12-31T02:52:25.697Z,28.10
2022-12-31T02:54:00.391Z,19.35
2022-12-31T02:55:11.662Z,20.60
2022-12-31T02:56:22.802Z,17.58
2022-12-31T02:57:28.375Z,17.38
2022-12-31T02:59:12.885Z,19.63
2022-12-31T03:00:32.173Z,15.55
2022-12-31T03:01:53.784Z,16.88
2022-12-31T03:02:52.706Z,17.95
2022-12-31T03:04:09.313Z,20.33
2022-12-31T03:05:06.968Z,16.52
2022-12-31T03:06:04.837Z,20.80
2022-12-31T03:07:14.819Z,19.55
2022-12-31T03:08:11.478Z,17.45
2022-12-31T03:09:13.711Z,18.25
2022-12-31T03:10:11.293Z,21.00
2022-12-31T03:11:27.833Z,23.08
2022-12-31T03:12:45.736Z,18.35
2022-12-31T03:13:42.279Z,19.98
2022-12-31T03:14:39.190Z,19.38
2022-12-31T03:15:35.848Z,14.93
2022-12-31T03:16:32.845Z,14.25
2022-12-31T03:17:29.596Z,19.33
2022-12-31T03:18:46.114Z,14.50
2022-12-31T03:20:01.303Z,16.63
2022-12-31T03:21:16.407Z,16.05
2022-12-31T03:22:28.555Z,14.23
2022-12-31T03:23:31.301Z,14.43
2022-12-31T03:24:46.674Z,18.35
2022-12-31T03:25:44.124Z,17.77
2022-12-31T03:26:40.778Z,16.70
2022-12-31T03:27:37.424Z,14.68
2022-12-31T03:28:34.093Z,16.38
2022-12-31T03:29:30.721Z,14.80
2022-12-31T03:30:28.202Z,16.58
2022-12-31T03:31:24.891Z,17.70
2022-12-31T03:32:21.480Z,20.15
2022-12-31T03:33:18.337Z,17.48
2022-12-31T03:34:15.721Z,31.20
2022-12-31T03:35:14.136Z,28.33
2022-12-31T03:36:14.095Z,25.77
2022-12-31T03:37:10.653Z,28.92
2022-12-31T03:38:07.839Z,25.13
2022-12-31T03:39:04.843Z,27.60
2022-12-31T03:40:01.483Z,19.02
2022-12-31T03:40:58.128Z,13.20
2022-12-31T03:41:54.771Z,16.90
2022-12-31T03:42:51.479Z,12.77
2022-12-31T03:43:48.101Z,15.15
2022-12-31T03:44:44.708Z,13.65
2022-12-31T03:45:41.908Z,12.10
2022-12-31T03:46:38.563Z,10.93
2022-12-31T03:47:35.191Z,12.43
2022-12-31T03:48:31.849Z,11.25
2022-12-31T03:49:28.577Z,15.00
2022-12-31T03:50:25.280Z,12.93
2022-12-31T03:51:21.905Z,10.38
2022-12-31T03:52:18.602Z,10.32
2022-12-31T03:53:15.291Z,11.20
2022-12-31T03:54:12.073Z,10.43
2022-12-31T03:55:10.318Z,8.98
2022-12-31T03:56:07.269Z,11.93
2022-12-31T03:57:03.995Z,11.52
2022-12-31T03:58:00.628Z,8.00
2022-12-31T03:58:57.225Z,12.93
2022-12-31T03:59:53.869Z,14.52
2022-12-31T04:00:51.073Z,22.25
2022-12-31T04:01:47.836Z,24.30
2022-12-31T04:02:45.073Z,14.57
2022-12-31T04:03:41.698Z,13.00
2022-12-31T04:04:38.346Z,17.23
2022-12-31T04:05:34.986Z,16.42
2022-12-31T04:06:31.650Z,18.38
2022-12-31T04:07:28.357Z,15.07
2022-12-31T04:08:25.178Z,16.23
2022-12-31T04:09:22.039Z,16.48
2022-12-31T04:10:19.711Z,14.43
2022-12-31T04:11:20.779Z,13.38
2022-12-31T04:12:17.812Z,14.27
2022-12-31T04:13:14.503Z,14.38
2022-12-31T04:14:11.818Z,16.05
2022-12-31T04:15:15.121Z,15.38
2022-12-31T04:16:11.729Z,8.95
2022-12-31T04:17:08.427Z,11.32
2022-12-31T04:18:05.099Z,10.75
2022-12-31T04:19:01.734Z,11.77
2022-12-31T04:19:58.596Z,9.18
2022-12-31T04:20:55.287Z,9.68
2022-12-31T04:21:52.130Z,9.57
2022-12-31T04:22:48.686Z,9.43
2022-12-31T04:23:45.305Z,11.52
2022-12-31T04:24:43.089Z,11.75
2022-12-31T04:25:39.781Z,12.40
2022-12-31T04:26:37.271Z,14.02
2022-12-31T04:27:34.059Z,14.27
2022-12-31T04:28:30.723Z,11.90
2022-12-31T04:29:27.553Z,12.70
2022-12-31T04:30:24.180Z,14.77
2022-12-31T04:31:20.931Z,13.82
2022-12-31T04:32:17.670Z,11.93
2022-12-31T04:33:14.287Z,13.73
2022-12-31T04:34:10.947Z,10.23
2022-12-31T04:35:08.392Z,11.90
2022-12-31T04:36:07.212Z,11.75
2022-12-31T04:37:04.248Z,12.93
2022-12-31T04:38:00.905Z,13.57
2022-12-31T04:38:57.535Z,12.70
2022-12-31T04:39:54.172Z,13.02
2022-12-31T04:41:09.452Z,14.00
2022-12-31T04:42:06.080Z,12.55
2022-12-31T04:43:02.662Z,10.80
2022-12-31T04:44:00.410Z,7.05
2022-12-31T04:44:56.975Z,7.05
2022-12-31T04:45:53.597Z,13.27
2022-12-31T04:46:50.255Z,11.20
2022-12-31T04:47:46.801Z,10.00
2022-12-31T04:48:43.969Z,14.90
2022-12-31T04:49:40.622Z,22.98
2022-12-31T04:50:37.304Z,11.10
2022-12-31T04:51:34.309Z,11.15
2022-12-31T04:52:30.990Z,13.95
2022-12-31T04:53:28.228Z,14.85
2022-12-31T04:54:24.850Z,15.52
2022-12-31T04:55:21.461Z,14.95
2022-12-31T04:56:19.021Z,21.70
2022-12-31T04:57:15.568Z,17.88
2022-12-31T04:58:12.111Z,19.42
2022-12-31T04:59:10.087Z,19.25
2022-12-31T05:00:08.076Z,19.58
2022-12-31T05:01:05.719Z,21.33
2022-12-31T05:02:02.651Z,22.35
2022-12-31T05:02:59.470Z,30.00
2022-12-31T05:03:56.070Z,22.67
2022-12-31T05:04:52.669Z,26.55
2022-12-31T05:05:50.112Z,25.10
2022-12-31T05:06:46.718Z,23.42
2022-12-31T05:07:43.307Z,35.03
2022-12-31T05:08:40.738Z,32.47
2022-12-31T05:09:38.417Z,28.70
2022-12-31T05:10:35.263Z,31.83
2022-12-31T05:11:31.998Z,38.75
2022-12-31T05:12:28.862Z,45.45
2022-12-31T05:13:31.187Z,41.83
2022-12-31T05:14:29.819Z,27.15
2022-12-31T05:15:26.453Z,34.28
2022-12-31T05:16:23.192Z,39.90
2022-12-31T05:17:20.844Z,41.53
2022-12-31T05:18:18.231Z,36.72
2022-12-31T05:19:14.989Z,39.55
2022-12-31T05:20:11.618Z,51.22
2022-12-31T05:21:08.452Z,41.05
2022-12-31T05:22:23.707Z,47.30
2022-12-31T05:23:20.378Z,38.38
2022-12-31T05:24:16.989Z,38.28
2022-12-31T05:25:13.737Z,32.50
2022-12-31T05:26:10.421Z,33.30
2022-12-31T05:27:07.125Z,42.55
2022-12-31T05:28:03.792Z,39.33
2022-12-31T05:29:00.621Z,36.55
2022-12-31T05:29:57.311Z,40.72
2022-12-31T05:30:54.281Z,37.08
2022-12-31T05:31:50.892Z,42.05
2022-12-31T05:32:47.599Z,33.90
2022-12-31T05:33:44.430Z,30.83
2022-12-31T05:34:41.123Z,41.70
2022-12-31T05:35:37.808Z,38.20
2022-12-31T05:36:34.417Z,33.42
2022-12-31T05:37:31.971Z,28.05
2022-12-31T05:38:28.644Z,27.73
2022-12-31T05:39:25.204Z,29.73
2022-12-31T05:40:22.157Z,30.13
2022-12-31T05:41:18.827Z,26.65
2022-12-31T05:42:15.479Z,23.70
2022-12-31T05:43:12.057Z,28.25
2022-12-31T05:44:10.710Z,24.98
2022-12-31T05:45:08.043Z,27.08
2022-12-31T05:46:05.714Z,26.15
2022-12-31T05:47:02.330Z,25.42
2022-12-31T05:47:59.105Z,26.33
2022-12-31T05:48:55.712Z,28.85
2022-12-31T05:49:52.244Z,25.65
2022-12-31T05:50:49.922Z,20.52
2022-12-31T05:51:46.601Z,29.85
2022-12-31T05:52:47.624Z,24.13
2022-12-31T05:53:44.600Z,19.27
2022-12-31T05:54:41.182Z,19.63
2022-12-31T05:55:37.797Z,25.65
2022-12-31T05:56:34.458Z,24.73
2022-12-31T05:57:31.054Z,23.45
2022-12-31T05:58:27.790Z,25.10
2022-12-31T05:59:25.021Z,23.55
2022-12-31T06:00:21.635Z,23.15
2022-12-31T06:01:18.417Z,19.23
2022-12-31T06:02:15.194Z,19.75
2022-12-31T06:03:12.085Z,19.77
2022-12-31T06:04:08.867Z,22.42
2022-12-31T06:05:06.394Z,21.98
2022-12-31T06:06:03.096Z,22.30
2022-12-31T06:06:59.690Z,24.83
2022-12-31T06:07:56.272Z,37.67
2022-12-31T06:08:53.111Z,34.05
2022-12-31T06:09:49.787Z,36.35
2022-12-31T06:10:46.422Z,42.95
2022-12-31T06:11:43.279Z,37.22
2022-12-31T06:12:39.935Z,42.58
2022-12-31T06:13:36.631Z,37.83
2022-12-31T06:14:33.381Z,40.88
2022-12-31T06:15:30.330Z,35.47
2022-12-31T06:16:27.325Z,32.17
2022-12-31T06:17:23.997Z,42.60
2022-12-31T06:18:20.671Z,41.55
2022-12-31T06:19:17.532Z,45.58
2022-12-31T06:20:14.119Z,36.17
2022-12-31T06:21:10.672Z,34.58
2022-12-31T06:22:07.291Z,34.10
2022-12-31T06:23:04.382Z,34.00
2022-12-31T06:24:01.245Z,31.90
2022-12-31T06:24:57.800Z,30.77
2022-12-31T06:25:54.433Z,32.13
2022-12-31T06:26:51.114Z,29.25
2022-12-31T06:27:47.737Z,29.13
2022-12-31T06:28:44.356Z,20.08
2022-12-31T06:29:41.018Z,23.02
2022-12-31T06:30:37.642Z,29.25
2022-12-31T06:31:34.524Z,22.80
2022-12-31T06:32:31.199Z,25.10
2022-12-31T06:33:28.580Z,26.17
2022-12-31T06:34:25.199Z,20.70
2022-12-31T06:35:22.196Z,17.85
2022-12-31T06:36:19.250Z,18.35
2022-12-31T06:37:15.885Z,24.55
2022-12-31T06:38:12.507Z,17.75
2022-12-31T06:39:09.081Z,16.90
2022-12-31T06:40:06.433Z,12.18
2022-12-31T06:41:07.747Z,19.17
2022-12-31T06:42:04.879Z,16.58
2022-12-31T06:43:01.432Z,17.10
2022-12-31T06:43:58.172Z,23.75
2022-12-31T06:44:54.688Z,19.65
2022-12-31T06:45:51.375Z,16.70
2022-12-31T06:46:49.877Z,13.88
2022-12-31T06:47:46.621Z,15.63
2022-12-31T06:48:45.004Z,13.30
2022-12-31T06:49:41.571Z,12.55
2022-12-31T06:50:39.438Z,13.75
2022-12-31T06:51:35.990Z,13.43
2022-12-31T06:52:32.910Z,18.75
2022-12-31T06:53:29.501Z,13.23
2022-12-31T06:54:26.473Z,13.95
2022-12-31T06:55:23.433Z,13.40
2022-12-31T06:56:26.622Z,15.77
2022-12-31T06:57:26.609Z,13.70
2022-12-31T06:58:23.815Z,15.15
2022-12-31T06:59:27.404Z,15.48
2022-12-31T07:00:24.274Z,12.77
2022-12-31T07:01:42.630Z,15.23
2022-12-31T07:03:17.742Z,14.85
2022-12-31T07:04:17.397Z,16.65
2022-12-31T07:05:46.596Z,15.57
2022-12-31T07:07:00.423Z,14.60
2022-12-31T07:08:32.398Z,13.20
2022-12-31T07:09:56.049Z,12.75
2022-12-31T07:11:26.864Z,13.57
2022-12-31T07:12:57.474Z,13.95
2022-12-31T07:14:09.751Z,12.55
2022-12-31T07:15:13.126Z,11.27
2022-12-31T07:16:30.847Z,14.13
2022-12-31T07:17:55.360Z,15.73
2022-12-31T07:19:12.431Z,16.75
2022-12-31T07:20:15.312Z,22.38
2022-12-31T07:21:14.920Z,21.38
2022-12-31T07:22:15.285Z,23.90
2022-12-31T07:23:12.215Z,19.75
2022-12-31T07:24:10.663Z,26.83
2022-12-31T07:25:08.003Z,22.77
2022-12-31T07:26:43.011Z,15.70
2022-12-31T07:28:04.478Z,19.80
2022-12-31T07:29:25.645Z,20.63
2022-12-31T07:30:33.194Z,22.25
2022-12-31T07:32:07.142Z,17.98
2022-12-31T07:33:40.896Z,22.05
2022-12-31T07:34:40.307Z,20.00
2022-12-31T07:36:14.195Z,20.23
2022-12-31T07:37:27.608Z,16.80
2022-12-31T07:38:57.307Z,18.38
2022-12-31T07:40:15.904Z,17.65
2022-12-31T07:41:18.193Z,22.08
2022-12-31T07:43:22.641Z,17.98
2022-12-31T07:44:30.158Z,15.55
2022-12-31T07:45:42.359Z,18.80
2022-12-31T07:46:51.293Z,19.27
2022-12-31T07:47:48.426Z,22.95
2022-12-31T07:48:45.610Z,18.70
2022-12-31T07:49:44.125Z,18.35
2022-12-31T07:50:40.983Z,16.75
2022-12-31T07:51:38.111Z,18.42
2022-12-31T07:52:35.108Z,20.85
2022-12-31T07:53:32.056Z,17.10
2022-12-31T07:54:28.651Z,20.77
2022-12-31T07:55:25.764Z,19.80
2022-12-31T07:56:22.455Z,18.92
2022-12-31T07:57:20.804Z,15.75
2022-12-31T07:58:53.466Z,19.15
2022-12-31T08:00:06.956Z,17.77
2022-12-31T08:01:04.397Z,19.40
2022-12-31T08:02:22.873Z,22.83
2022-12-31T08:04:00.216Z,24.75
2022-12-31T08:05:12.066Z,27.17
2022-12-31T08:06:08.866Z,22.80
2022-12-31T08:07:31.777Z,25.48
2022-12-31T08:08:50.123Z,24.52
2022-12-31T08:09:58.737Z,24.75
2022-12-31T08:11:18.383Z,23.38
2022-12-31T08:12:15.786Z,26.88
2022-12-31T08:13:13.087Z,30.23
2022-12-31T08:14:13.280Z,28.50
2022-12-31T08:15:18.443Z,29.23
2022-12-31T08:16:15.481Z,32.55
2022-12-31T08:17:17.128Z,33.45
2022-12-31T08:18:14.130Z,31.40
2022-12-31T08:19:18.900Z,34.53
2022-12-31T08:20:17.513Z,32.22
2022-12-31T08:21:43.191Z,30.58
2022-12-31T08:22:55.067Z,30.30
2022-12-31T08:24:19.967Z,32.00
2022-12-31T08:25:38.129Z,28.35
2022-12-31T08:26:53.347Z,27.13
2022-12-31T08:28:14.388Z,33.70
2022-12-31T08:29:11.119Z,35.80
2022-12-31T08:30:21.306Z,30.48
2022-12-31T08:31:30.928Z,34.20
2022-12-31T08:33:12.909Z,38.97
2022-12-31T08:34:31.034Z,41.17
2022-12-31T08:36:41.423Z,34.90
2022-12-31T08:37:46.947Z,42.05
2022-12-31T08:39:06.327Z,33.28
2022-12-31T08:40:12.359Z,39.60
2022-12-31T08:41:18.440Z,38.63
2022-12-31T08:42:48.108Z,35.65
2022-12-31T08:43:48.238Z,42.83
2022-12-31T08:45:00.707Z,38.25
2022-12-31T08:45:58.596Z,37.55
2022-12-31T08:47:07.473Z,33.25
2022-12-31T08:48:32.890Z,38.67
2022-12-31T08:49:32.580Z,41.85
2022-12-31T08:50:29.994Z,37.42
2022-12-31T08:51:27.229Z,34.55
2022-12-31T08:52:26.369Z,40.13
2022-12-31T08:53:23.288Z,34.13
2022-12-31T08:54:20.186Z,32.85
2022-12-31T08:55:18.876Z,37.80
2022-12-31T08:56:26.662Z,43.10
2022-12-31T08:57:42.287Z,40.10
2022-12-31T08:59:08.512Z,51.55
2022-12-31T09:00:18.807Z,42.30
2022-12-31T09:01:21.749Z,36.90
2022-12-31T09:02:37.090Z,39.83
2022-12-31T09:03:39.472Z,38.20
2022-12-31T09:04:55.271Z,48.25
2022-12-31T09:06:16.219Z,49.47
2022-12-31T09:07:14.227Z,43.33
2022-12-31T09:08:23.505Z,46.50
2022-12-31T09:09:33.084Z,44.53
2022-12-31T09:10:34.043Z,48.50
2022-12-31T09:12:06.085Z,41.53
2022-12-31T09:13:21.687Z,41.97
2022-12-31T09:14:40.178Z,48.85
2022-12-31T09:15:43.877Z,50.45
2022-12-31T09:16:40.511Z,42.60
2022-12-31T09:17:44.956Z,45.28
2022-12-31T09:18:43.081Z,48.13
2022-12-31T09:19:39.651Z,42.33
2022-12-31T09:20:44.713Z,42.90
2022-12-31T09:21:45.241Z,41.35
2022-12-31T09:22:42.121Z,50.92
2022-12-31T09:23:39.743Z,46.65
2022-12-31T09:24:36.665Z,48.10
2022-12-31T09:25:33.693Z,50.75
2022-12-31T09:26:39.405Z,48.25
2022-12-31T09:27:51.854Z,43.00
2022-12-31T09:28:51.077Z,46.22
2022-12-31T09:30:01.720Z,56.85
2022-12-31T09:31:28.100Z,47.72
2022-12-31T09:32:30.864Z,41.05
2022-12-31T09:33:40.400Z,50.13
2022-12-31T09:34:54.136Z,46.08
2022-12-31T09:36:01.644Z,45.42
2022-12-31T09:37:05.380Z,40.92
2022-12-31T09:38:15.142Z,49.20
2022-12-31T09:39:39.798Z,38.95
2022-12-31T09:41:15.110Z,51.20
2022-12-31T09:42:26.802Z,45.75
2022-12-31T09:43:42.103Z,44.95
2022-12-31T09:44:54.286Z,49.03
2022-12-31T09:46:03.600Z,52.75
2022-12-31T09:47:27.821Z,41.72
2022-12-31T09:48:46.171Z,37.20
2022-12-31T09:50:31.574Z,37.78
2022-12-31T09:51:30.189Z,41.30
2022-12-31T09:52:57.596Z,42.88
2022-12-31T09:54:15.699Z,42.40
2022-12-31T09:55:12.274Z,42.58
2022-12-31T09:56:26.212Z,41.00
2022-12-31T09:57:25.635Z,42.08
2022-12-31T09:58:41.863Z,46.25
2022-12-31T09:59:51.454Z,39.67
2022-12-31T10:01:01.350Z,41.75
2022-12-31T10:02:18.537Z,47.40
2022-12-31T10:03:37.063Z,44.65
2022-12-31T10:04:39.982Z,42.08
2022-12-31T10:05:48.498Z,45.28
2022-12-31T10:07:15.661Z,49.05
2022-12-31T10:08:49.849Z,47.00
2022-12-31T10:10:21.763Z,44.25
2022-12-31T10:11:39.626Z,38.05
2022-12-31T10:13:03.625Z,38.63
2022-12-31T10:14:03.171Z,43.25
2022-12-31T10:15:23.969Z,37.20
2022-12-31T10:16:43.125Z,37.08
2022-12-31T10:18:04.002Z,35.00
2022-12-31T10:19:12.730Z,39.17
2022-12-31T10:20:37.758Z,42.20
2022-12-31T10:22:08.155Z,39.53
2022-12-31T10:23:26.141Z,46.47
2022-12-31T10:24:50.437Z,48.58
2022-12-31T10:25:49.869Z,42.38
2022-12-31T10:27:01.849Z,42.65
2022-12-31T10:28:14.262Z,43.65
2022-12-31T10:29:19.568Z,44.45
2022-12-31T10:30:19.349Z,52.15
2022-12-31T10:31:45.420Z,48.85
2022-12-31T10:32:53.874Z,53.30
2022-12-31T10:34:26.807Z,50.03
2022-12-31T10:35:23.483Z,45.67
2022-12-31T10:36:47.187Z,43.03
2022-12-31T10:39:24.276Z,45.05
2022-12-31T10:40:46.176Z,43.15
2022-12-31T10:41:49.126Z,43.17
2022-12-31T10:42:59.115Z,36.20
2022-12-31T10:44:19.973Z,35.13
2022-12-31T10:45:38.305Z,36.00
2022-12-31T10:47:10.759Z,36.42
2022-12-31T10:48:21.493Z,33.13
2022-12-31T10:49:51.807Z,38.20
2022-12-31T10:50:57.468Z,47.92
2022-12-31T10:51:54.066Z,40.50
2022-12-31T10:53:29.221Z,32.53
2022-12-31T10:54:53.497Z,46.67
2022-12-31T10:55:59.102Z,46.00
2022-12-31T10:57:13.903Z,37.72
2022-12-31T10:58:41.483Z,38.60
2022-12-31T10:59:56.630Z,48.90
2022-12-31T11:00:58.088Z,44.85
2022-12-31T11:02:11.938Z,32.40
2022-12-31T11:03:36.599Z,37.90
2022-12-31T11:05:07.989Z,31.70
2022-12-31T11:06:41.384Z,31.90
2022-12-31T11:07:49.804Z,29.58
2022-12-31T11:09:07.421Z,35.08
2022-12-31T11:10:41.354Z,22.38
2022-12-31T11:12:08.415Z,26.13
2022-12-31T11:13:29.704Z,28.25
2022-12-31T11:14:44.323Z,21.55
2022-12-31T11:15:50.087Z,37.97
2022-12-31T11:17:19.545Z,27.58
2022-12-31T11:18:38.499Z,22.52
2022-12-31T11:20:07.822Z,22.17
2022-12-31T11:21:12.537Z,26.00
2022-12-31T11:22:24.267Z,23.88
2022-12-31T11:23:35.577Z,18.67
2022-12-31T11:24:41.008Z,25.73
2022-12-31T11:26:25.198Z,23.08
2022-12-31T11:27:36.942Z,17.67
2022-12-31T11:28:45.173Z,11.23
2022-12-31T11:30:00.473Z,13.05
2022-12-31T11:31:20.120Z,12.27
2022-12-31T11:32:29.001Z,16.77
2022-12-31T11:33:31.680Z,15.95
2022-12-31T11:35:03.882Z,13.98
2022-12-31T11:36:08.864Z,16.00
2022-12-31T11:37:40.652Z,20.23
2022-12-31T11:38:51.616Z,16.27
2022-12-31T11:40:26.913Z,12.15
2022-12-31T11:41:58.991Z,19.02
2022-12-31T11:42:58.875Z,13.57
2022-12-31T11:44:16.441Z,11.30
2022-12-31T11:45:31.616Z,16.77
2022-12-31T11:46:57.127Z,14.50
2022-12-31T11:48:31.621Z,19.10
2022-12-31T11:49:59.377Z,15.48
2022-12-31T11:51:29.409Z,16.00
2022-12-31T11:52:51.074Z,13.20
2022-12-31T11:54:25.364Z,12.18
2022-12-31T11:56:28.416Z,15.15
2022-12-31T11:57:34.019Z,12.23
2022-12-31T11:58:31.314Z,14.80
2022-12-31T11:59:27.973Z,13.05
2022-12-31T12:00:27.010Z,17.65
2022-12-31T12:01:35.950Z,20.95
2022-12-31T12:02:37.109Z,12.30
2022-12-31T12:03:38.661Z,14.30
2022-12-31T12:04:35.434Z,13.88
2022-12-31T12:05:33.836Z,14.68
2022-12-31T12:06:32.915Z,16.73
2022-12-31T12:07:31.768Z,16.95
2022-12-31T12:08:31.971Z,14.90
2022-12-31T12:09:32.239Z,19.17
2022-12-31T12:10:36.468Z,18.83
2022-12-31T12:11:39.173Z,13.90
2022-12-31T12:12:40.497Z,14.25
2022-12-31T12:13:37.096Z,15.65
2022-12-31T12:14:36.039Z,14.57
2022-12-31T12:15:35.512Z,14.75
2022-12-31T12:16:32.244Z,14.05
2022-12-31T12:17:34.342Z,15.95
2022-12-31T12:18:41.108Z,16.60
2022-12-31T12:19:46.564Z,18.33
2022-12-31T12:20:46.354Z,15.43
2022-12-31T12:21:47.853Z,21.27
2022-12-31T12:22:53.214Z,15.30
2022-12-31T12:24:19.399Z,19.38
2022-12-31T12:25:20.625Z,17.70
2022-12-31T12:26:38.672Z,19.58
2022-12-31T12:27:36.435Z,13.48
2022-12-31T12:28:46.110Z,13.27
2022-12-31T12:29:42.759Z,17.10
2022-12-31T12:30:41.402Z,18.23
2022-12-31T12:31:38.842Z,21.52
2022-12-31T12:32:35.824Z,13.68
2022-12-31T12:33:46.395Z,12.25
2022-12-31T12:34:49.329Z,13.27
2022-12-31T12:35:47.638Z,12.10
2022-12-31T12:36:47.853Z,13.70
2022-12-31T12:37:44.454Z,10.63
2022-12-31T12:38:41.458Z,13.18
2022-12-31T12:39:38.145Z,12.15
2022-12-31T12:40:35.812Z,17.75
2022-12-31T12:41:32.979Z,13.05
2022-12-31T12:42:30.330Z,13.50
2022-12-31T12:43:30.284Z,15.30
2022-12-31T12:44:26.945Z,15.90
2022-12-31T12:45:36.195Z,14.65
2022-12-31T12:46:48.386Z,12.63
2022-12-31T12:47:49.051Z,15.95
2022-12-31T12:48:49.653Z,14.43
2022-12-31T12:49:48.535Z,12.13
2022-12-31T12:50:47.948Z,16.52
2022-12-31T12:52:10.217Z,14.05
2022-12-31T12:53:18.839Z,19.20
2022-12-31T12:54:37.144Z,13.77
2022-12-31T12:55:52.470Z,30.77
2022-12-31T12:56:55.165Z,31.23
2022-12-31T12:58:19.654Z,21.05
2022-12-31T12:59:34.738Z,23.60
2022-12-31T13:00:57.895Z,19.55
2022-12-31T13:01:54.751Z,40.67
2022-12-31T13:03:09.855Z,27.38
2022-12-31T13:04:43.814Z,32.72
2022-12-31T13:05:43.141Z,20.60
2022-12-31T13:06:51.694Z,19.23
2022-12-31T13:08:24.946Z,13.40
2022-12-31T13:09:54.677Z,19.05
2022-12-31T13:11:11.483Z,17.88
2022-12-31T13:13:05.324Z,15.05
2022-12-31T13:14:05.921Z,17.00
2022-12-31T13:15:21.122Z,11.20
2022-12-31T13:16:35.412Z,11.95
2022-12-31T13:17:37.829Z,21.45
2022-12-31T13:18:34.422Z,13.98
2022-12-31T13:19:37.239Z,18.02
2022-12-31T13:20:45.743Z,13.02
2022-12-31T13:22:00.543Z,14.77
2022-12-31T13:23:14.197Z,16.73
2022-12-31T13:24:29.496Z,16.30
2022-12-31T13:25:38.250Z,13.77
2022-12-31T13:26:51.815Z,13.05
2022-12-31T13:27:51.977Z,11.65
2022-12-31T13:28:52.271Z,14.50
2022-12-31T13:29:49.817Z,14.77
2022-12-31T13:30:50.803Z,10.85
2022-12-31T13:31:50.217Z,13.43
2022-12-31T13:33:01.733Z,10.57
2022-12-31T13:34:06.485Z,10.05
2022-12-31T13:35:25.316Z,12.60
2022-12-31T13:36:24.775Z,14.65
2022-12-31T13:37:35.443Z,13.20
2022-12-31T13:38:37.613Z,10.27
2022-12-31T13:39:39.477Z,11.13
2022-12-31T13:40:41.317Z,9.25
2022-12-31T13:41:55.374Z,9.55
2022-12-31T13:43:06.268Z,20.65
2022-12-31T13:44:08.774Z,14.65
2022-12-31T13:46:21.173Z,10.85
2022-12-31T13:47:33.211Z,12.15
2022-12-31T13:48:40.639Z,8.93
2022-12-31T13:49:39.953Z,9.63
2022-12-31T13:50:42.777Z,8.98
2022-12-31T13:51:42.223Z,9.68
2022-12-31T13:52:50.612Z,10.43
2022-12-31T13:54:27.672Z,10.35
2022-12-31T13:55:26.657Z,7.97
2022-12-31T13:56:27.531Z,11.77
2022-12-31T13:57:39.228Z,10.88
2022-12-31T13:58:53.887Z,14.93
2022-12-31T13:59:59.124Z,11.63
2022-12-31T14:01:06.879Z,17.38